sensor_id;sensor_type;location;lat;lon;timestamp;pressure;altitude;pressure_sealevel;temperature;humidity
72896;BME280;61036;53.224;6.554;2022-07-04T00:00:17;101945.72;;;13.59;98.06
72896;BME280;61036;53.224;6.554;2022-07-04T00:02:45;101944.31;;;13.53;97.78
72896;BME280;61036;53.224;6.554;2022-07-04T00:05:11;101949.66;;;13.55;98.37
72896;BME280;61036;53.224;6.554;2022-07-04T00:07:47;101956.69;;;13.57;98.04
72896;BME280;61036;53.224;6.554;2022-07-04T00:10:17;101947.03;;;13.53;98.07
72896;BME280;61036;53.224;6.554;2022-07-04T00:12:43;101946.38;;;13.49;98.58
72896;BME280;61036;53.224;6.554;2022-07-04T00:15:10;101948.00;;;13.52;99.45
72896;BME280;61036;53.224;6.554;2022-07-04T00:17:37;101950.50;;;13.42;99.17
72896;BME280;61036;53.224;6.554;2022-07-04T00:20:05;101962.41;;;13.40;99.47
72896;BME280;61036;53.224;6.554;2022-07-04T00:22:31;101956.56;;;13.46;98.99
72896;BME280;61036;53.224;6.554;2022-07-04T00:24:57;101953.94;;;13.44;99.13
72896;BME280;61036;53.224;6.554;2022-07-04T00:27:23;101951.16;;;13.46;98.64
72896;BME280;61036;53.224;6.554;2022-07-04T00:29:51;101950.72;;;13.52;98.58
72896;BME280;61036;53.224;6.554;2022-07-04T00:32:17;101950.81;;;13.50;98.01
72896;BME280;61036;53.224;6.554;2022-07-04T00:34:43;101953.00;;;13.45;98.06
72896;BME280;61036;53.224;6.554;2022-07-04T00:37:09;101949.16;;;13.35;97.83
72896;BME280;61036;53.224;6.554;2022-07-04T00:39:37;101943.44;;;13.27;97.71
72896;BME280;61036;53.224;6.554;2022-07-04T00:42:03;101945.81;;;13.32;98.21
72896;BME280;61036;53.224;6.554;2022-07-04T00:44:30;101940.94;;;13.37;99.07
72896;BME280;61036;53.224;6.554;2022-07-04T00:46:56;101933.91;;;13.34;99.66
72896;BME280;61036;53.224;6.554;2022-07-04T00:49:21;101941.69;;;13.26;99.97
72896;BME280;61036;53.224;6.554;2022-07-04T00:51:47;101936.56;;;13.21;99.89
72896;BME280;61036;53.224;6.554;2022-07-04T00:54:15;101933.00;;;13.21;100.00
72896;BME280;61036;53.224;6.554;2022-07-04T00:56:44;101934.06;;;13.18;100.00
72896;BME280;61036;53.224;6.554;2022-07-04T00:59:11;101933.41;;;13.15;100.00
72896;BME280;61036;53.224;6.554;2022-07-04T01:01:37;101934.16;;;13.17;100.00
72896;BME280;61036;53.224;6.554;2022-07-04T01:04:03;101935.44;;;13.11;100.00
72896;BME280;61036;53.224;6.554;2022-07-04T01:06:30;101936.34;;;13.12;100.00
72896;BME280;61036;53.224;6.554;2022-07-04T01:08:56;101944.84;;;13.05;100.00
72896;BME280;61036;53.224;6.554;2022-07-04T01:11:22;101945.81;;;13.04;99.69
72896;BME280;61036;53.224;6.554;2022-07-04T01:13:47;101948.09;;;12.98;99.39
72896;BME280;61036;53.224;6.554;2022-07-04T01:16:13;101943.25;;;13.03;99.93
72896;BME280;61036;53.224;6.554;2022-07-04T01:18:39;101937.59;;;13.06;100.00
72896;BME280;61036;53.224;6.554;2022-07-04T01:21:05;101936.19;;;13.00;100.00
72896;BME280;61036;53.224;6.554;2022-07-04T01:23:31;101934.53;;;12.98;99.27
72896;BME280;61036;53.224;6.554;2022-07-04T01:25:57;101930.78;;;13.00;100.00
72896;BME280;61036;53.224;6.554;2022-07-04T01:28:25;101933.69;;;12.97;100.00
72896;BME280;61036;53.224;6.554;2022-07-04T01:30:51;101929.44;;;12.93;100.00
72896;BME280;61036;53.224;6.554;2022-07-04T01:33:17;101928.03;;;12.88;99.74
72896;BME280;61036;53.224;6.554;2022-07-04T01:35:44;101925.53;;;12.85;99.75
72896;BME280;61036;53.224;6.554;2022-07-04T01:38:10;101928.63;;;12.78;99.15
72896;BME280;61036;53.224;6.554;2022-07-04T01:40:36;101930.78;;;12.73;99.02
72896;BME280;61036;53.224;6.554;2022-07-04T01:43:01;101927.09;;;12.74;98.70
72896;BME280;61036;53.224;6.554;2022-07-04T01:45:27;101929.56;;;12.65;98.62
72896;BME280;61036;53.224;6.554;2022-07-04T01:47:53;101919.34;;;12.55;98.95
72896;BME280;61036;53.224;6.554;2022-07-04T01:50:18;101916.50;;;12.57;99.10
72896;BME280;61036;53.224;6.554;2022-07-04T01:52:44;101916.09;;;12.63;99.48
72896;BME280;61036;53.224;6.554;2022-07-04T01:55:12;101921.31;;;12.66;99.61
72896;BME280;61036;53.224;6.554;2022-07-04T01:57:38;101917.00;;;12.64;100.00
72896;BME280;61036;53.224;6.554;2022-07-04T02:00:09;101922.41;;;12.64;99.79
72896;BME280;61036;53.224;6.554;2022-07-04T02:02:55;101918.41;;;12.69;99.72
72896;BME280;61036;53.224;6.554;2022-07-04T02:05:22;101915.03;;;12.66;99.73
72896;BME280;61036;53.224;6.554;2022-07-04T02:07:51;101916.22;;;12.62;99.91
72896;BME280;61036;53.224;6.554;2022-07-04T02:10:17;101918.16;;;12.59;99.93
72896;BME280;61036;53.224;6.554;2022-07-04T02:12:43;101917.41;;;12.57;99.91
72896;BME280;61036;53.224;6.554;2022-07-04T02:15:35;101920.88;;;12.59;100.00
72896;BME280;61036;53.224;6.554;2022-07-04T02:18:03;101912.94;;;12.56;100.00
72896;BME280;61036;53.224;6.554;2022-07-04T02:20:30;101913.97;;;12.68;100.00
72896;BME280;61036;53.224;6.554;2022-07-04T02:22:56;101910.41;;;12.68;100.00
72896;BME280;61036;53.224;6.554;2022-07-04T02:25:22;101910.00;;;12.74;100.00
72896;BME280;61036;53.224;6.554;2022-07-04T02:27:53;101905.66;;;12.71;100.00
72896;BME280;61036;53.224;6.554;2022-07-04T02:30:20;101905.44;;;12.74;100.00
72896;BME280;61036;53.224;6.554;2022-07-04T02:32:45;101916.38;;;12.73;100.00
72896;BME280;61036;53.224;6.554;2022-07-04T02:35:11;101911.19;;;12.70;100.00
72896;BME280;61036;53.224;6.554;2022-07-04T02:37:37;101908.56;;;12.68;100.00
72896;BME280;61036;53.224;6.554;2022-07-04T02:40:04;101908.69;;;12.67;100.00
72896;BME280;61036;53.224;6.554;2022-07-04T02:42:32;101904.13;;;12.67;100.00
72896;BME280;61036;53.224;6.554;2022-07-04T02:44:58;101903.28;;;12.67;100.00
72896;BME280;61036;53.224;6.554;2022-07-04T02:47:23;101895.81;;;12.70;100.00
72896;BME280;61036;53.224;6.554;2022-07-04T02:49:49;101894.81;;;12.71;100.00
72896;BME280;61036;53.224;6.554;2022-07-04T02:52:14;101897.09;;;12.65;100.00
72896;BME280;61036;53.224;6.554;2022-07-04T02:54:41;101899.13;;;12.61;100.00
72896;BME280;61036;53.224;6.554;2022-07-04T02:57:07;101894.06;;;12.69;100.00
72896;BME280;61036;53.224;6.554;2022-07-04T02:59:35;101898.16;;;12.62;100.00
72896;BME280;61036;53.224;6.554;2022-07-04T03:02:01;101896.50;;;12.59;100.00
72896;BME280;61036;53.224;6.554;2022-07-04T03:04:27;101893.94;;;12.58;100.00
72896;BME280;61036;53.224;6.554;2022-07-04T03:06:55;101895.06;;;12.54;100.00
72896;BME280;61036;53.224;6.554;2022-07-04T03:09:20;101901.66;;;12.50;100.00
72896;BME280;61036;53.224;6.554;2022-07-04T03:11:46;101905.91;;;12.54;100.00
72896;BME280;61036;53.224;6.554;2022-07-04T03:14:11;101907.34;;;12.59;100.00
72896;BME280;61036;53.224;6.554;2022-07-04T03:16:37;101909.84;;;12.63;100.00
72896;BME280;61036;53.224;6.554;2022-07-04T03:19:03;101903.75;;;12.59;100.00
72896;BME280;61036;53.224;6.554;2022-07-04T03:21:29;101902.69;;;12.62;100.00
72896;BME280;61036;53.224;6.554;2022-07-04T03:23:56;101913.59;;;12.60;100.00
72896;BME280;61036;53.224;6.554;2022-07-04T03:26:26;101913.81;;;12.57;100.00
72896;BME280;61036;53.224;6.554;2022-07-04T03:28:52;101913.53;;;12.62;100.00
72896;BME280;61036;53.224;6.554;2022-07-04T03:31:18;101905.28;;;12.63;100.00
72896;BME280;61036;53.224;6.554;2022-07-04T03:33:47;101913.81;;;12.57;100.00
72896;BME280;61036;53.224;6.554;2022-07-04T03:36:15;101905.81;;;12.55;100.00
72896;BME280;61036;53.224;6.554;2022-07-04T03:38:41;101906.88;;;12.53;100.00
72896;BME280;61036;53.224;6.554;2022-07-04T03:41:06;101898.56;;;12.56;100.00
72896;BME280;61036;53.224;6.554;2022-07-04T03:43:32;101903.88;;;12.57;100.00
72896;BME280;61036;53.224;6.554;2022-07-04T03:45:59;101910.81;;;12.62;100.00
72896;BME280;61036;53.224;6.554;2022-07-04T03:48:25;101915.91;;;12.66;100.00
72896;BME280;61036;53.224;6.554;2022-07-04T03:50:50;101912.47;;;12.64;100.00
72896;BME280;61036;53.224;6.554;2022-07-04T03:53:16;101910.97;;;12.73;100.00
72896;BME280;61036;53.224;6.554;2022-07-04T03:55:42;101909.66;;;12.78;100.00
72896;BME280;61036;53.224;6.554;2022-07-04T03:58:08;101921.69;;;12.74;100.00
72896;BME280;61036;53.224;6.554;2022-07-04T04:00:34;101912.09;;;12.83;100.00
72896;BME280;61036;53.224;6.554;2022-07-04T04:03:01;101911.22;;;12.82;100.00
72896;BME280;61036;53.224;6.554;2022-07-04T04:05:26;101909.47;;;12.81;100.00
72896;BME280;61036;53.224;6.554;2022-07-04T04:07:59;101901.97;;;12.72;100.00
72896;BME280;61036;53.224;6.554;2022-07-04T04:10:30;101896.34;;;12.75;100.00
72896;BME280;61036;53.224;6.554;2022-07-04T04:12:57;101891.06;;;12.74;100.00
72896;BME280;61036;53.224;6.554;2022-07-04T04:15:25;101887.94;;;12.80;100.00
72896;BME280;61036;53.224;6.554;2022-07-04T04:17:50;101888.38;;;12.87;100.00
72896;BME280;61036;53.224;6.554;2022-07-04T04:20:16;101892.50;;;12.92;100.00
72896;BME280;61036;53.224;6.554;2022-07-04T04:22:41;101905.63;;;12.98;100.00
72896;BME280;61036;53.224;6.554;2022-07-04T04:25:07;101893.94;;;12.98;100.00
72896;BME280;61036;53.224;6.554;2022-07-04T04:27:33;101894.38;;;13.04;100.00
72896;BME280;61036;53.224;6.554;2022-07-04T04:30:01;101890.16;;;13.13;100.00
72896;BME280;61036;53.224;6.554;2022-07-04T04:32:27;101893.31;;;13.20;100.00
72896;BME280;61036;53.224;6.554;2022-07-04T04:34:52;101904.91;;;13.22;100.00
72896;BME280;61036;53.224;6.554;2022-07-04T04:37:18;101909.09;;;13.27;100.00
72896;BME280;61036;53.224;6.554;2022-07-04T04:39:44;101906.38;;;13.27;100.00
72896;BME280;61036;53.224;6.554;2022-07-04T04:42:10;101912.31;;;13.33;100.00
72896;BME280;61036;53.224;6.554;2022-07-04T04:44:35;101912.22;;;13.47;100.00
72896;BME280;61036;53.224;6.554;2022-07-04T04:47:00;101911.91;;;13.52;100.00
72896;BME280;61036;53.224;6.554;2022-07-04T04:49:29;101912.22;;;13.60;100.00
72896;BME280;61036;53.224;6.554;2022-07-04T04:51:55;101920.91;;;13.65;100.00
72896;BME280;61036;53.224;6.554;2022-07-04T04:54:21;101912.69;;;13.66;99.80
72896;BME280;61036;53.224;6.554;2022-07-04T04:56:47;101918.41;;;13.75;99.77
72896;BME280;61036;53.224;6.554;2022-07-04T04:59:12;101909.00;;;14.30;98.31
72896;BME280;61036;53.224;6.554;2022-07-04T05:01:38;101904.75;;;14.38;97.21
72896;BME280;61036;53.224;6.554;2022-07-04T05:04:03;101909.31;;;14.25;97.24
72896;BME280;61036;53.224;6.554;2022-07-04T05:06:29;101916.34;;;14.40;97.30
72896;BME280;61036;53.224;6.554;2022-07-04T05:08:54;101912.47;;;14.93;95.89
72896;BME280;61036;53.224;6.554;2022-07-04T05:11:20;101915.53;;;16.26;92.01
72896;BME280;61036;53.224;6.554;2022-07-04T05:13:45;101918.44;;;16.57;88.10
72896;BME280;61036;53.224;6.554;2022-07-04T05:16:13;101908.78;;;18.41;80.67
72896;BME280;61036;53.224;6.554;2022-07-04T05:18:38;101913.19;;;18.92;76.48
72896;BME280;61036;53.224;6.554;2022-07-04T05:21:04;101916.13;;;17.37;79.27
72896;BME280;61036;53.224;6.554;2022-07-04T05:23:30;101931.84;;;16.26;85.08
72896;BME280;61036;53.224;6.554;2022-07-04T05:25:55;101924.38;;;15.61;88.38
72896;BME280;61036;53.224;6.554;2022-07-04T05:28:21;101924.44;;;15.37;90.38
72896;BME280;61036;53.224;6.554;2022-07-04T05:30:47;101920.59;;;15.28;91.90
72896;BME280;61036;53.224;6.554;2022-07-04T05:33:13;101927.81;;;15.51;91.60
72896;BME280;61036;53.224;6.554;2022-07-04T05:35:39;101924.69;;;15.91;91.21
72896;BME280;61036;53.224;6.554;2022-07-04T05:38:04;101921.09;;;15.91;89.97
72896;BME280;61036;53.224;6.554;2022-07-04T05:40:30;101921.31;;;16.87;89.10
72896;BME280;61036;53.224;6.554;2022-07-04T05:42:55;101913.13;;;19.51;78.82
72896;BME280;61036;53.224;6.554;2022-07-04T05:45:21;101918.50;;;17.94;78.97
72896;BME280;61036;53.224;6.554;2022-07-04T05:47:49;101931.50;;;16.74;84.32
72896;BME280;61036;53.224;6.554;2022-07-04T05:50:15;101940.97;;;16.36;87.54
72896;BME280;61036;53.224;6.554;2022-07-04T05:52:41;101944.84;;;16.11;89.15
72896;BME280;61036;53.224;6.554;2022-07-04T05:55:07;101944.47;;;15.93;90.97
72896;BME280;61036;53.224;6.554;2022-07-04T05:57:34;101949.94;;;16.05;91.21
72896;BME280;61036;53.224;6.554;2022-07-04T06:00:00;101939.16;;;16.14;90.99
72896;BME280;61036;53.224;6.554;2022-07-04T06:02:26;101945.72;;;16.00;91.63
72896;BME280;61036;53.224;6.554;2022-07-04T06:04:52;101938.78;;;16.08;91.89
72896;BME280;61036;53.224;6.554;2022-07-04T06:07:17;101932.09;;;16.12;91.75
72896;BME280;61036;53.224;6.554;2022-07-04T06:09:43;101934.94;;;16.44;91.70
72896;BME280;61036;53.224;6.554;2022-07-04T06:12:09;101935.78;;;16.44;90.54
72896;BME280;61036;53.224;6.554;2022-07-04T06:14:35;101931.81;;;16.49;91.05
72896;BME280;61036;53.224;6.554;2022-07-04T06:17:01;101930.03;;;17.13;89.73
72896;BME280;61036;53.224;6.554;2022-07-04T06:19:27;101925.47;;;18.67;83.78
72896;BME280;61036;53.224;6.554;2022-07-04T06:21:53;101928.59;;;17.51;85.13
72896;BME280;61036;53.224;6.554;2022-07-04T06:24:19;101934.84;;;17.21;87.30
72896;BME280;61036;53.224;6.554;2022-07-04T06:26:45;101932.22;;;17.20;88.56
72896;BME280;61036;53.224;6.554;2022-07-04T06:29:11;101930.88;;;17.14;87.95
72896;BME280;61036;53.224;6.554;2022-07-04T06:31:37;101939.06;;;17.35;87.63
72896;BME280;61036;53.224;6.554;2022-07-04T06:34:02;101939.75;;;17.27;86.97
72896;BME280;61036;53.224;6.554;2022-07-04T06:36:47;101927.63;;;17.20;87.16
72896;BME280;61036;53.224;6.554;2022-07-04T06:39:13;101931.84;;;17.24;86.46
72896;BME280;61036;53.224;6.554;2022-07-04T06:41:41;101931.63;;;17.37;86.65
72896;BME280;61036;53.224;6.554;2022-07-04T06:44:06;101925.06;;;17.60;87.32
72896;BME280;61036;53.224;6.554;2022-07-04T06:46:32;101929.06;;;18.08;85.86
72896;BME280;61036;53.224;6.554;2022-07-04T06:48:57;101925.03;;;18.02;83.72
72896;BME280;61036;53.224;6.554;2022-07-04T06:51:23;101924.00;;;18.03;85.18
72896;BME280;61036;53.224;6.554;2022-07-04T06:53:50;101928.94;;;18.19;84.53
72896;BME280;61036;53.224;6.554;2022-07-04T06:56:16;101929.94;;;18.09;84.22
72896;BME280;61036;53.224;6.554;2022-07-04T06:58:42;101928.72;;;18.32;83.97
72896;BME280;61036;53.224;6.554;2022-07-04T07:01:08;101931.44;;;18.32;83.49
72896;BME280;61036;53.224;6.554;2022-07-04T07:03:33;101922.84;;;18.46;85.65
72896;BME280;61036;53.224;6.554;2022-07-04T07:05:59;101932.63;;;18.49;84.54
72896;BME280;61036;53.224;6.554;2022-07-04T07:08:24;101928.88;;;18.50;83.31
72896;BME280;61036;53.224;6.554;2022-07-04T07:10:50;101914.47;;;18.28;83.82
72896;BME280;61036;53.224;6.554;2022-07-04T07:13:16;101926.31;;;18.48;83.64
72896;BME280;61036;53.224;6.554;2022-07-04T07:15:42;101926.03;;;18.61;81.52
72896;BME280;61036;53.224;6.554;2022-07-04T07:18:07;101914.31;;;19.00;80.86
72896;BME280;61036;53.224;6.554;2022-07-04T07:20:33;101926.41;;;19.07;80.83
72896;BME280;61036;53.224;6.554;2022-07-04T07:23:04;101925.50;;;19.45;78.58
72896;BME280;61036;53.224;6.554;2022-07-04T07:25:30;101928.53;;;19.42;79.24
72896;BME280;61036;53.224;6.554;2022-07-04T07:27:58;101924.97;;;19.03;78.56
72896;BME280;61036;53.224;6.554;2022-07-04T07:30:24;101926.97;;;18.81;79.69
72896;BME280;61036;53.224;6.554;2022-07-04T07:32:50;101923.66;;;18.78;80.16
72896;BME280;61036;53.224;6.554;2022-07-04T07:35:15;101921.38;;;18.92;79.38
72896;BME280;61036;53.224;6.554;2022-07-04T07:37:43;101927.91;;;18.70;79.93
72896;BME280;61036;53.224;6.554;2022-07-04T07:40:09;101927.63;;;18.64;80.97
72896;BME280;61036;53.224;6.554;2022-07-04T07:42:38;101926.41;;;19.07;80.21
72896;BME280;61036;53.224;6.554;2022-07-04T07:45:04;101927.19;;;19.75;76.67
72896;BME280;61036;53.224;6.554;2022-07-04T07:47:30;101924.75;;;19.62;76.86
72896;BME280;61036;53.224;6.554;2022-07-04T07:49:56;101918.25;;;19.83;77.61
72896;BME280;61036;53.224;6.554;2022-07-04T07:52:22;101914.72;;;20.00;77.60
72896;BME280;61036;53.224;6.554;2022-07-04T07:54:47;101918.59;;;19.51;76.12
72896;BME280;61036;53.224;6.554;2022-07-04T07:57:16;101920.66;;;19.29;77.80
72896;BME280;61036;53.224;6.554;2022-07-04T07:59:42;101914.31;;;19.09;79.86
72896;BME280;61036;53.224;6.554;2022-07-04T08:02:08;101916.91;;;18.91;80.37
72896;BME280;61036;53.224;6.554;2022-07-04T08:04:34;101920.16;;;18.66;80.59
72896;BME280;61036;53.224;6.554;2022-07-04T08:07:05;101917.69;;;18.53;81.98
72896;BME280;61036;53.224;6.554;2022-07-04T08:09:31;101922.53;;;18.30;83.46
72896;BME280;61036;53.224;6.554;2022-07-04T08:11:58;101921.06;;;18.26;83.91
72896;BME280;61036;53.224;6.554;2022-07-04T08:14:30;101929.69;;;18.21;84.31
72896;BME280;61036;53.224;6.554;2022-07-04T08:16:57;101926.84;;;18.02;83.72
72896;BME280;61036;53.224;6.554;2022-07-04T08:19:23;101925.56;;;17.96;84.79
72896;BME280;61036;53.224;6.554;2022-07-04T08:21:50;101934.25;;;18.11;85.09
72896;BME280;61036;53.224;6.554;2022-07-04T08:24:16;101930.28;;;18.35;84.69
72896;BME280;61036;53.224;6.554;2022-07-04T08:26:45;101932.47;;;18.41;83.64
72896;BME280;61036;53.224;6.554;2022-07-04T08:29:11;101943.66;;;18.98;83.15
72896;BME280;61036;53.224;6.554;2022-07-04T08:31:36;101937.31;;;19.65;80.64
72896;BME280;61036;53.224;6.554;2022-07-04T08:34:02;101936.78;;;20.26;75.95
72896;BME280;61036;53.224;6.554;2022-07-04T08:36:28;101924.41;;;21.13;71.48
72896;BME280;61036;53.224;6.554;2022-07-04T08:38:54;101921.75;;;20.68;71.40
72896;BME280;61036;53.224;6.554;2022-07-04T08:41:24;101928.78;;;20.15;73.41
72896;BME280;61036;53.224;6.554;2022-07-04T08:43:53;101929.28;;;20.01;74.57
72896;BME280;61036;53.224;6.554;2022-07-04T08:46:23;101941.97;;;20.02;74.42
72896;BME280;61036;53.224;6.554;2022-07-04T08:48:55;101944.00;;;19.90;74.36
72896;BME280;61036;53.224;6.554;2022-07-04T08:51:37;101938.00;;;19.67;74.36
72896;BME280;61036;53.224;6.554;2022-07-04T08:54:07;101939.47;;;19.71;73.69
72896;BME280;61036;53.224;6.554;2022-07-04T08:56:55;101923.47;;;21.22;65.75
72896;BME280;61036;53.224;6.554;2022-07-04T08:59:39;101925.22;;;22.87;57.99
72896;BME280;61036;53.224;6.554;2022-07-04T09:02:06;101921.66;;;23.35;52.27
72896;BME280;61036;53.224;6.554;2022-07-04T09:04:32;101922.50;;;24.24;51.22
72896;BME280;61036;53.224;6.554;2022-07-04T09:06:58;101918.22;;;23.74;51.43
72896;BME280;61036;53.224;6.554;2022-07-04T09:09:25;101922.13;;;23.80;54.29
72896;BME280;61036;53.224;6.554;2022-07-04T09:11:52;101918.31;;;24.36;51.40
72896;BME280;61036;53.224;6.554;2022-07-04T09:14:18;101923.06;;;23.23;49.04
72896;BME280;61036;53.224;6.554;2022-07-04T09:16:44;101925.13;;;23.04;49.64
72896;BME280;61036;53.224;6.554;2022-07-04T09:19:19;101921.38;;;22.71;50.67
72896;BME280;61036;53.224;6.554;2022-07-04T09:21:46;101925.09;;;23.45;49.24
72896;BME280;61036;53.224;6.554;2022-07-04T09:24:12;101931.78;;;23.92;47.63
72896;BME280;61036;53.224;6.554;2022-07-04T09:26:45;101924.97;;;24.19;44.48
72896;BME280;61036;53.224;6.554;2022-07-04T09:29:12;101922.31;;;25.57;42.62
72896;BME280;61036;53.224;6.554;2022-07-04T09:31:38;101926.31;;;24.23;44.39
72896;BME280;61036;53.224;6.554;2022-07-04T09:34:06;101935.41;;;23.43;46.99
72896;BME280;61036;53.224;6.554;2022-07-04T09:36:34;101929.81;;;22.70;48.70
72896;BME280;61036;53.224;6.554;2022-07-04T09:39:15;101933.72;;;23.18;46.41
72896;BME280;61036;53.224;6.554;2022-07-04T09:42:02;101932.56;;;21.93;49.27
72896;BME280;61036;53.224;6.554;2022-07-04T09:46:59;101939.28;;;25.92;40.65
72896;BME280;61036;53.224;6.554;2022-07-04T09:50:19;101936.44;;;28.84;35.39
72896;BME280;61036;53.224;6.554;2022-07-04T09:52:56;101934.94;;;27.92;34.60
72896;BME280;61036;53.224;6.554;2022-07-04T09:58:03;101937.19;;;24.16;44.48
72896;BME280;61036;53.224;6.554;2022-07-04T10:00:30;101943.50;;;24.73;43.53
72896;BME280;61036;53.224;6.554;2022-07-04T10:03:18;101928.41;;;27.50;38.05
72896;BME280;61036;53.224;6.554;2022-07-04T10:08:30;101928.75;;;26.61;39.89
72896;BME280;61036;53.224;6.554;2022-07-04T10:10:59;101932.25;;;25.05;42.68
72896;BME280;61036;53.224;6.554;2022-07-04T10:13:32;101948.84;;;23.30;47.52
72896;BME280;61036;53.224;6.554;2022-07-04T10:15:59;101945.53;;;23.92;45.02
72896;BME280;61036;53.224;6.554;2022-07-04T10:18:25;101939.00;;;25.49;40.17
72896;BME280;61036;53.224;6.554;2022-07-04T10:20:52;101943.56;;;25.57;40.60
72896;BME280;61036;53.224;6.554;2022-07-04T10:23:20;101939.59;;;25.21;40.15
72896;BME280;61036;53.224;6.554;2022-07-04T10:25:47;101933.00;;;25.22;39.94
72896;BME280;61036;53.224;6.554;2022-07-04T10:28:14;101933.88;;;24.69;42.69
72896;BME280;61036;53.224;6.554;2022-07-04T10:30:44;101940.19;;;23.99;43.17
72896;BME280;61036;53.224;6.554;2022-07-04T10:33:11;101939.84;;;24.02;44.57
72896;BME280;61036;53.224;6.554;2022-07-04T10:38:14;101946.09;;;23.38;44.04
72896;BME280;61036;53.224;6.554;2022-07-04T10:41:26;101934.22;;;23.38;45.35
72896;BME280;61036;53.224;6.554;2022-07-04T10:56:39;101930.25;;;23.65;44.16
72896;BME280;61036;53.224;6.554;2022-07-04T10:59:13;101932.31;;;23.63;42.98
72896;BME280;61036;53.224;6.554;2022-07-04T11:01:45;101927.31;;;23.58;42.19
72896;BME280;61036;53.224;6.554;2022-07-04T11:04:11;101922.50;;;23.60;43.67
72896;BME280;61036;53.224;6.554;2022-07-04T11:09:30;101930.91;;;23.01;46.18
72896;BME280;61036;53.224;6.554;2022-07-04T11:11:56;101931.59;;;22.36;50.55
72896;BME280;61036;53.224;6.554;2022-07-04T11:14:37;101940.63;;;21.68;48.74
72896;BME280;61036;53.224;6.554;2022-07-04T11:17:16;101942.03;;;21.46;50.50
72896;BME280;61036;53.224;6.554;2022-07-04T11:19:45;101943.53;;;21.93;48.10
72896;BME280;61036;53.224;6.554;2022-07-04T11:22:12;101924.56;;;22.34;45.23
72896;BME280;61036;53.224;6.554;2022-07-04T11:24:46;101924.06;;;22.39;44.28
72896;BME280;61036;53.224;6.554;2022-07-04T11:27:14;101921.88;;;22.16;45.26
72896;BME280;61036;53.224;6.554;2022-07-04T11:29:55;101920.91;;;22.92;45.78
72896;BME280;61036;53.224;6.554;2022-07-04T11:32:21;101919.41;;;23.22;46.03
72896;BME280;61036;53.224;6.554;2022-07-04T11:34:54;101924.59;;;23.42;45.14
72896;BME280;61036;53.224;6.554;2022-07-04T11:37:21;101917.72;;;23.38;44.65
72896;BME280;61036;53.224;6.554;2022-07-04T11:39:50;101912.53;;;23.10;44.33
72896;BME280;61036;53.224;6.554;2022-07-04T11:42:35;101924.22;;;23.69;45.25
72896;BME280;61036;53.224;6.554;2022-07-04T11:45:22;101918.38;;;23.81;44.34
72896;BME280;61036;53.224;6.554;2022-07-04T11:47:47;101925.09;;;23.70;42.27
72896;BME280;61036;53.224;6.554;2022-07-04T11:50:17;101918.56;;;23.38;42.65
72896;BME280;61036;53.224;6.554;2022-07-04T11:52:45;101918.19;;;23.49;41.89
72896;BME280;61036;53.224;6.554;2022-07-04T11:55:16;101916.84;;;23.04;41.51
72896;BME280;61036;53.224;6.554;2022-07-04T11:57:49;101916.50;;;22.99;41.61
72896;BME280;61036;53.224;6.554;2022-07-04T12:00:24;101928.81;;;22.79;44.56
72896;BME280;61036;53.224;6.554;2022-07-04T12:02:52;101921.59;;;22.86;43.18
72896;BME280;61036;53.224;6.554;2022-07-04T12:05:23;101919.09;;;23.17;44.15
72896;BME280;61036;53.224;6.554;2022-07-04T12:07:49;101917.63;;;22.72;42.04
72896;BME280;61036;53.224;6.554;2022-07-04T12:10:17;101906.78;;;22.63;41.68
72896;BME280;61036;53.224;6.554;2022-07-04T12:15:20;101914.56;;;22.25;44.08
72896;BME280;61036;53.224;6.554;2022-07-04T12:17:53;101895.41;;;22.49;42.74
72896;BME280;61036;53.224;6.554;2022-07-04T12:20:23;101906.44;;;22.66;42.16
72896;BME280;61036;53.224;6.554;2022-07-04T12:23:00;101912.09;;;22.64;43.72
72896;BME280;61036;53.224;6.554;2022-07-04T12:28:10;101900.59;;;22.60;44.97
72896;BME280;61036;53.224;6.554;2022-07-04T12:30:47;101911.44;;;22.20;43.33
72896;BME280;61036;53.224;6.554;2022-07-04T12:33:14;101915.34;;;21.83;43.99
72896;BME280;61036;53.224;6.554;2022-07-04T12:35:51;101911.50;;;22.02;44.73
72896;BME280;61036;53.224;6.554;2022-07-04T12:38:39;101907.34;;;21.63;45.38
72896;BME280;61036;53.224;6.554;2022-07-04T12:41:11;101899.97;;;22.24;45.04
72896;BME280;61036;53.224;6.554;2022-07-04T12:46:30;101900.44;;;22.78;45.53
72896;BME280;61036;53.224;6.554;2022-07-04T12:49:00;101897.91;;;22.93;44.31
72896;BME280;61036;53.224;6.554;2022-07-04T12:51:27;101907.28;;;22.15;47.40
72896;BME280;61036;53.224;6.554;2022-07-04T12:53:55;101897.47;;;22.55;47.51
72896;BME280;61036;53.224;6.554;2022-07-04T12:58:57;101902.72;;;22.24;45.55
72896;BME280;61036;53.224;6.554;2022-07-04T13:01:23;101893.84;;;22.47;45.33
72896;BME280;61036;53.224;6.554;2022-07-04T13:03:51;101900.34;;;22.03;44.31
72896;BME280;61036;53.224;6.554;2022-07-04T13:06:17;101898.34;;;21.53;47.70
72896;BME280;61036;53.224;6.554;2022-07-04T13:08:45;101892.97;;;22.04;46.11
72896;BME280;61036;53.224;6.554;2022-07-04T13:11:11;101904.78;;;22.30;45.48
72896;BME280;61036;53.224;6.554;2022-07-04T13:13:57;101900.44;;;22.20;45.82
72896;BME280;61036;53.224;6.554;2022-07-04T13:16:26;101911.16;;;21.97;45.47
72896;BME280;61036;53.224;6.554;2022-07-04T13:18:52;101908.72;;;22.28;43.48
72896;BME280;61036;53.224;6.554;2022-07-04T13:21:17;101917.66;;;22.80;42.44
72896;BME280;61036;53.224;6.554;2022-07-04T13:23:43;101921.63;;;22.94;42.38
72896;BME280;61036;53.224;6.554;2022-07-04T13:26:11;101914.47;;;22.59;43.23
72896;BME280;61036;53.224;6.554;2022-07-04T13:28:40;101935.41;;;23.02;43.35